Time;durP1;ratioP1;P1;durP2;ratioP2;P2;SDS_P1;SDS_P2;PMS_P1;PMS_P2;Temp;Humidity;BMP_temperature;BMP_pressure;BME280_temperature;BME280_humidity;BME280_pressure;Samples;Min_cycle;Max_cycle;Signal;HPM_P1;HPM_P2
2023/06/01 00:00:29;;;;;;;8.40;4.63;;;;;;;10.12;100.00;102559.84;4970284;28;20213;-76
2023/06/01 00:03:13;;;;;;;13.07;4.90;;;;;;;10.12;100.00;102558.97;4970656;28;20049;-76
2023/06/01 00:05:57;;;;;;;8.75;4.20;;;;;;;10.10;100.00;102559.03;4971293;28;20170;-76
2023/06/01 00:08:52;;;;;;;;;;;;;;;;;;;;;
2023/06/01 00:11:40;;;;;;;9.35;4.50;;;;;;;10.07;100.00;102547.63;4971608;28;20583;-75
2023/06/01 00:14:24;;;;;;;8.27;4.80;;;;;;;10.07;100.00;102555.56;4972953;28;20041;-76
2023/06/01 00:17:11;;;;;;;10.23;4.65;;;;;;;10.04;100.00;102551.19;4973119;28;20556;-76
2023/06/01 00:19:56;;;;;;;10.15;4.80;;;;;;;10.06;100.00;102549.38;4971271;28;20073;-76
2023/06/01 00:22:42;;;;;;;8.80;4.93;;;;;;;10.07;100.00;102550.25;4974103;28;20057;-76
2023/06/01 00:25:27;;;;;;;8.88;4.53;;;;;;;10.07;100.00;102545.81;4954976;28;20069;-76
2023/06/01 00:28:11;;;;;;;9.43;4.45;;;;;;;10.10;100.00;102544.91;4958661;28;20102;-76
2023/06/01 00:30:55;;;;;;;6.55;3.95;;;;;;;10.07;100.00;102545.81;4975239;28;20128;-74
2023/06/01 00:33:39;;;;;;;7.43;3.72;;;;;;;10.05;100.00;102545.88;4958775;28;20166;-75
2023/06/01 00:36:24;;;;;;;9.43;3.40;;;;;;;9.97;100.00;102550.38;4973058;28;20084;-75
2023/06/01 00:39:08;;;;;;;6.55;3.53;;;;;;;9.92;100.00;102547.81;4973927;28;20078;-76
2023/06/01 00:41:52;;;;;;;6.68;3.50;;;;;;;9.87;100.00;102543.50;4974967;28;20041;-74
2023/06/01 00:44:36;;;;;;;5.80;3.05;;;;;;;9.84;100.00;102536.47;4979141;28;20507;-76
2023/06/01 00:47:20;;;;;;;6.28;3.30;;;;;;;9.83;100.00;102542.69;4978627;28;20092;-76
2023/06/01 00:50:08;;;;;;;9.60;3.03;;;;;;;9.81;100.00;102549.75;4994692;28;20420;-77
2023/06/01 00:52:52;;;;;;;7.28;3.47;;;;;;;9.83;100.00;102542.69;4993589;28;20153;-77
2023/06/01 00:55:37;;;;;;;7.72;3.58;;;;;;;9.82;100.00;102540.94;4980202;28;20088;-76
2023/06/01 00:58:21;;;;;;;6.45;3.42;;;;;;;9.83;100.00;102541.78;4981867;28;20098;-77
2023/06/01 01:01:18;;;;;;;7.90;3.25;;;;;;;9.83;100.00;102555.91;4980411;28;20244;-75
2023/06/01 01:04:05;;;;;;;8.63;3.50;;;;;;;9.84;100.00;102543.53;4973219;28;20088;-77
2023/06/01 01:06:57;;;;;;;8.80;3.35;;;;;;;9.87;100.00;102546.16;4990506;28;20060;-75
2023/06/01 01:09:58;;;;;;;8.32;3.22;;;;;;;9.85;100.00;102535.59;4994649;28;20571;-75
2023/06/01 01:13:04;;;;;;;5.85;3.85;;;;;;;9.87;100.00;102541.72;4990654;28;20121;-75
2023/06/01 01:16:00;;;;;;;8.80;3.90;;;;;;;9.88;100.00;102545.25;4992659;28;20149;-76
2023/06/01 01:19:12;;;;;;;6.40;3.45;;;;;;;9.88;100.00;102540.84;4965170;28;20072;-77
2023/06/01 01:22:03;;;;;;;10.25;3.60;;;;;;;9.90;100.00;102539.03;4979187;28;20146;-75
2023/06/01 01:25:18;;;;;;;9.98;3.67;;;;;;;9.92;100.00;102541.66;4992522;28;20076;-76
2023/06/01 01:28:26;;;;;;;7.53;3.60;;;;;;;9.92;100.00;102537.22;4995279;28;20063;-76
2023/06/01 01:31:12;;;;;;;6.50;3.50;;;;;;;9.91;100.00;102535.50;4993774;28;20091;-75
2023/06/01 01:33:57;;;;;;;5.45;3.70;;;;;;;9.92;100.00;102529.28;4996059;28;20041;-76
2023/06/01 01:36:44;;;;;;;6.07;3.60;;;;;;;9.92;100.00;102526.66;4979404;28;20099;-75
2023/06/01 01:39:28;;;;;;;11.18;4.07;;;;;;;9.92;100.00;102526.66;4969820;28;20709;-75
2023/06/01 01:42:12;;;;;;;9.85;4.40;;;;;;;9.93;100.00;102530.19;4994936;28;20108;-74
2023/06/01 01:44:56;;;;;;;12.30;5.20;;;;;;;9.92;100.00;102521.34;4992758;28;20069;-75
2023/06/01 01:47:43;;;;;;;8.38;3.58;;;;;;;9.94;100.00;102523.09;4976976;28;20534;-76
2023/06/01 01:50:32;;;;;;;10.77;4.90;;;;;;;9.97;100.00;102523.06;4993093;28;20057;-75
2023/06/01 01:53:16;;;;;;;10.05;4.95;;;;;;;9.95;100.00;102524.84;4979119;28;20071;-76
2023/06/01 01:56:01;;;;;;;9.43;4.20;;;;;;;9.92;100.00;102526.66;4964678;28;20726;-76
2023/06/01 01:58:47;;;;;;;12.07;4.90;;;;;;;9.91;100.00;102527.56;4995116;28;20138;-75
2023/06/01 02:01:32;;;;;;;12.38;4.93;;;;;;;9.92;100.00;102520.50;4979230;28;20369;-75
2023/06/01 02:04:16;;;;;;;8.40;4.57;;;;;;;9.91;100.00;102518.72;4996761;28;20132;-75
2023/06/01 02:06:59;;;;;;;9.45;5.03;;;;;;;9.91;100.00;102516.09;4978912;28;20500;-75
2023/06/01 02:09:44;;;;;;;8.85;4.80;;;;;;;9.91;100.00;102511.69;4994445;28;20048;-76
2023/06/01 02:12:28;;;;;;;7.03;3.58;;;;;;;9.87;100.00;102509.97;4993925;28;20044;-76
2023/06/01 02:15:12;;;;;;;8.00;4.32;;;;;;;9.85;100.00;102508.25;4975615;28;20053;-75
2023/06/01 02:17:56;;;;;;;9.10;4.18;;;;;;;9.84;100.00;102509.13;4980323;28;20091;-75
2023/06/01 02:20:40;;;;;;;8.10;4.38;;;;;;;9.84;100.00;102509.13;4994195;28;20072;-77
2023/06/01 02:23:24;;;;;;;7.28;4.03;;;;;;;9.81;100.00;102501.28;4994675;28;20052;-76
2023/06/01 02:26:09;;;;;;;6.80;4.03;;;;;;;9.83;100.00;102505.63;4992016;28;20115;-75
2023/06/01 02:28:56;;;;;;;9.05;4.00;;;;;;;9.84;100.00;102499.44;4962105;28;20043;-75
2023/06/01 02:31:43;;;;;;;7.50;4.00;;;;;;;9.87;100.00;102509.97;4977632;28;20100;-76
2023/06/01 02:34:27;;;;;;;7.47;3.75;;;;;;;9.87;100.00;102499.38;4994788;28;20676;-77
2023/06/01 02:37:11;;;;;;;7.57;3.40;;;;;;;9.88;100.00;102509.09;4980981;28;20242;-75
2023/06/01 02:39:55;;;;;;;7.32;3.50;;;;;;;9.91;100.00;102505.50;4978207;28;20052;-76
2023/06/01 02:42:40;;;;;;;7.40;3.63;;;;;;;9.93;100.00;102501.06;4995085;28;20530;-76
2023/06/01 02:45:24;;;;;;;8.90;4.20;;;;;;;9.94;100.00;102499.28;4993096;28;20057;-75
2023/06/01 02:48:09;;;;;;;8.07;3.60;;;;;;;9.95;100.00;102498.38;4993804;28;20056;-76
2023/06/01 02:50:53;;;;;;;5.90;3.55;;;;;;;9.92;100.00;102489.59;4990234;28;20045;-76
2023/06/01 02:53:41;;;;;;;7.25;3.75;;;;;;;9.92;100.00;102494.03;4989611;28;20052;-75
2023/06/01 02:56:25;;;;;;;7.70;3.75;;;;;;;9.90;100.00;102490.53;4974199;28;20135;-76
2023/06/01 02:59:12;;;;;;;7.45;3.35;;;;;;;9.90;100.00;102488.78;4991488;28;20207;-76
2023/06/01 03:01:56;;;;;;;7.25;3.60;;;;;;;9.90;100.00;102491.41;4987777;28;20045;-75
2023/06/01 03:04:40;;;;;;;6.50;3.50;;;;;;;9.90;100.00;102491.41;4976558;28;20073;-75
2023/06/01 03:07:25;;;;;;;4.75;3.08;;;;;;;9.89;100.00;102480.84;4990397;28;20052;-75
2023/06/01 03:10:15;;;;;;;9.43;3.33;;;;;;;9.89;100.00;102473.81;4990444;28;20080;-75
2023/06/01 03:12:59;;;;;;;7.45;3.40;;;;;;;9.89;100.00;102473.81;4978666;28;20076;-77
2023/06/01 03:15:44;;;;;;;6.55;3.35;;;;;;;9.87;100.00;102480.00;4994162;28;21084;-77
2023/06/01 03:18:28;;;;;;;5.18;2.88;;;;;;;9.88;100.00;102479.09;4981268;28;20099;-75
2023/06/01 03:21:12;;;;;;;6.53;2.90;;;;;;;9.89;100.00;102479.09;4996670;28;20124;-77
2023/06/01 03:23:56;;;;;;;5.90;3.30;;;;;;;9.91;100.00;102477.28;4994742;28;20564;-74
2023/06/01 03:26:41;;;;;;;5.88;2.95;;;;;;;9.93;100.00;102482.56;4974414;28;20041;-75
2023/06/01 03:29:25;;;;;;;5.75;3.08;;;;;;;9.92;100.00;102470.22;4996358;28;20133;-75
2023/06/01 03:32:09;;;;;;;5.07;2.95;;;;;;;9.94;100.00;102470.19;4990937;28;20572;-75
2023/06/01 03:34:53;;;;;;;6.53;3.13;;;;;;;9.96;100.00;102465.75;4994539;28;20044;-76
2023/06/01 03:37:39;;;;;;;4.05;2.50;;;;;;;9.97;100.00;102459.56;4979595;28;20142;-76
2023/06/01 03:40:23;;;;;;;6.57;3.28;;;;;;;9.97;100.00;102463.06;4994976;28;20514;-74
2023/06/01 03:43:09;;;;;;;9.15;2.80;;;;;;;9.99;100.00;102463.06;4979873;28;20056;-76
2023/06/01 03:45:53;;;;;;;5.70;2.80;;;;;;;10.01;100.00;102466.53;4997129;28;20064;-76
2023/06/01 03:48:38;;;;;;;8.60;2.90;;;;;;;10.02;100.00;102465.66;4992746;28;20057;-75
2023/06/01 03:51:22;;;;;;;6.32;2.92;;;;;;;10.00;100.00;102470.97;4996176;28;20060;-76
2023/06/01 03:54:06;;;;;;;5.13;2.60;;;;;;;9.99;100.00;102460.41;4995631;28;20552;-77
2023/06/01 03:56:50;;;;;;;4.28;2.50;;;;;;;9.98;100.00;102462.16;4997302;28;20157;-77
2023/06/01 03:59:34;;;;;;;5.32;2.38;;;;;;;10.00;100.00;102464.78;4993603;28;20210;-77
2023/06/01 04:02:19;;;;;;;3.72;2.55;;;;;;;10.01;100.00;102467.41;4981126;28;20037;-76
2023/06/01 04:05:07;;;;;;;5.90;2.67;;;;;;;10.02;100.00;102463.88;4979870;28;20129;-75
2023/06/01 04:07:52;;;;;;;5.50;2.35;;;;;;;10.03;100.00;102465.63;4995432;28;20151;-77
2023/06/01 04:10:36;;;;;;;5.25;2.55;;;;;;;10.04;100.00;102467.34;4995613;28;20061;-76
2023/06/01 04:13:20;;;;;;;5.22;2.17;;;;;;;10.08;100.00;102457.59;4996890;28;20160;-76
2023/06/01 04:16:05;;;;;;;5.47;3.10;;;;;;;10.10;100.00;102463.75;4995105;28;20044;-74
2023/06/01 04:18:52;;;;;;;6.72;3.28;;;;;;;10.11;100.00;102460.19;4994335;28;20420;-74
2023/06/01 04:21:37;;;;;;;5.97;2.97;;;;;;;10.11;100.00;102460.19;4995953;28;20084;-75
2023/06/01 04:24:21;;;;;;;6.50;3.25;;;;;;;10.15;100.00;102461.88;4978036;28;20562;-76
2023/06/01 04:27:06;;;;;;;7.20;2.80;;;;;;;10.13;100.00;102461.03;4992885;28;20041;-76
2023/06/01 04:29:51;;;;;;;4.78;2.60;;;;;;;10.15;100.00;102453.06;4966164;28;20656;-76
2023/06/01 04:32:37;;;;;;;6.93;3.13;;;;;;;10.14;100.00;102468.06;4994645;28;20076;-75
2023/06/01 04:35:22;;;;;;;6.97;3.17;;;;;;;10.17;100.00;102473.31;4979210;28;20758;-77
2023/06/01 04:38:06;;;;;;;7.10;2.90;;;;;;;10.19;100.00;102468.88;4967127;28;20125;-76
2023/06/01 04:40:53;;;;;;;6.10;2.80;;;;;;;10.20;100.00;102472.41;4992008;28;20483;-77
2023/06/01 04:43:40;;;;;;;4.05;2.60;;;;;;;10.23;100.00;102471.47;4991569;28;20241;-75
2023/06/01 04:46:25;;;;;;;6.75;2.72;;;;;;;10.26;100.00;102469.66;4979528;28;20113;-76
2023/06/01 04:49:11;;;;;;;4.38;2.65;;;;;;;10.28;100.00;102467.84;4993084;28;20120;-77
2023/06/01 04:51:56;;;;;;;4.65;2.72;;;;;;;10.28;100.00;102466.94;4996582;28;20049;-76
2023/06/01 04:54:40;;;;;;;5.47;2.40;;;;;;;10.28;100.00;102466.94;4994127;28;20057;-76
2023/06/01 04:57:24;;;;;;;4.22;2.53;;;;;;;10.27;100.00;102465.22;4980454;28;20161;-75
2023/06/01 05:00:13;;;;;;;4.57;2.42;;;;;;;10.26;100.00;102472.28;4996135;28;20052;-76
2023/06/01 05:02:57;;;;;;;4.15;2.13;;;;;;;10.27;100.00;102468.75;4993517;28;20065;-76
2023/06/01 05:05:41;;;;;;;4.18;2.17;;;;;;;10.29;100.00;102473.97;4994109;28;20109;-76
2023/06/01 05:08:28;;;;;;;4.88;2.30;;;;;;;10.30;100.00;102468.66;4994688;28;20052;-76
2023/06/01 05:11:13;;;;;;;4.82;2.28;;;;;;;10.33;100.00;102467.75;4984093;28;22126;-75
2023/06/01 05:14:01;;;;;;;5.78;2.80;;;;;;;10.34;100.00;102464.19;4997638;28;20048;-76
2023/06/01 05:16:45;;;;;;;8.13;2.35;;;;;;;10.37;100.00;102469.44;4979478;28;20049;-75
2023/06/01 05:19:29;;;;;;;4.00;2.45;;;;;;;10.41;100.00;102460.53;4979294;28;20033;-76
2023/06/01 05:22:13;;;;;;;4.43;2.50;;;;;;;10.46;100.00;102465.75;4996963;28;20080;-75
2023/06/01 05:24:57;;;;;;;4.82;2.67;;;;;;;10.49;100.00;102459.53;4980707;28;20057;-76
2023/06/01 05:27:41;;;;;;;4.50;2.80;;;;;;;10.54;100.00;102460.31;4996068;28;20055;-76
2023/06/01 05:30:25;;;;;;;4.55;2.55;;;;;;;10.56;100.00;102455.88;4994725;28;20687;-76
2023/06/01 05:33:09;;;;;;;5.93;3.08;;;;;;;10.56;100.00;102458.50;4993031;28;20571;-76
2023/06/01 05:35:54;;;;;;;3.90;2.60;;;;;;;10.60;100.00;102452.25;4985126;28;20044;-76
2023/06/01 05:38:38;;;;;;;6.55;3.00;;;;;;;10.60;100.00;102452.25;4982190;28;20097;-76
2023/06/01 05:41:22;;;;;;;7.75;3.30;;;;;;;10.61;100.00;102459.31;4977904;28;20072;-75
2023/06/01 05:44:07;;;;;;;6.25;2.88;;;;;;;10.62;100.00;102453.09;4981825;28;20124;-75
2023/06/01 05:46:52;;;;;;;3.95;2.78;;;;;;;10.62;100.00;102461.03;4992345;28;20061;-74
2023/06/01 05:49:36;;;;;;;10.07;3.05;;;;;;;10.67;100.00;102464.47;4996695;28;20634;-75
2023/06/01 05:52:21;;;;;;;4.40;3.20;;;;;;;10.70;100.00;102456.50;4976661;28;20125;-75
2023/06/01 05:55:05;;;;;;;4.85;2.88;;;;;;;10.74;100.00;102457.31;4972201;28;20519;-76
2023/06/01 05:57:49;;;;;;;9.00;3.60;;;;;;;10.79;100.00;102454.56;4991033;28;20057;-77
2023/06/01 06:00:37;;;;;;;6.90;3.20;;;;;;;10.80;100.00;102457.19;4990220;28;20064;-75
2023/06/01 06:03:22;;;;;;;5.18;2.88;;;;;;;10.79;100.00;102454.56;4992020;28;20061;-74
2023/06/01 06:06:06;;;;;;;6.25;2.70;;;;;;;10.84;100.00;102452.69;4979515;28;20141;-75
2023/06/01 06:08:51;;;;;;;4.57;2.65;;;;;;;10.83;100.00;102462.41;4989517;28;20124;-76
2023/06/01 06:11:35;;;;;;;5.60;2.42;;;;;;;10.82;100.00;102454.47;4964794;28;20189;-75
2023/06/01 06:14:24;;;;;;;5.53;2.45;;;;;;;10.81;100.00;102458.03;4979720;28;20049;-77
2023/06/01 06:17:12;;;;;;;3.70;2.78;;;;;;;10.78;100.00;102463.41;4990272;28;20072;-76
2023/06/01 06:19:56;;;;;;;6.43;2.78;;;;;;;10.80;100.00;102464.25;4993622;28;20684;-76
2023/06/01 06:22:41;;;;;;;3.90;2.50;;;;;;;10.83;100.00;102458.84;4986312;28;20052;-76
2023/06/01 06:25:25;;;;;;;5.30;2.60;;;;;;;10.85;100.00;102457.06;4989499;28;20073;-76
2023/06/01 06:28:09;;;;;;;4.97;2.55;;;;;;;10.90;100.00;102460.47;4993142;28;20081;-76
2023/06/01 06:30:53;;;;;;;5.70;3.92;;;;;;;10.95;100.00;102461.25;4993614;28;20188;-74
2023/06/01 06:33:38;;;;;;;6.88;3.00;;;;;;;10.96;100.00;102456.84;4991807;28;21813;-75
2023/06/01 06:36:22;;;;;;;8.05;3.40;;;;;;;11.00;100.00;102448.78;4994082;28;20117;-76
2023/06/01 06:39:06;;;;;;;7.10;3.00;;;;;;;11.06;100.00;102452.22;4990980;28;20057;-74
2023/06/01 06:41:56;;;;;;;7.35;2.80;;;;;;;11.08;100.00;102451.28;4992073;28;20072;-75
2023/06/01 06:44:41;;;;;;;5.65;2.25;;;;;;;11.13;100.00;102453.81;4990751;28;20064;-76
2023/06/01 06:47:25;;;;;;;6.03;2.95;;;;;;;11.16;100.00;102452.88;4994824;28;21283;-75
2023/06/01 06:50:10;;;;;;;13.65;2.72;;;;;;;11.18;100.00;102456.38;4993302;28;20081;-75
2023/06/01 06:52:56;;;;;;;6.63;2.40;;;;;;;11.18;100.00;102457.25;4993037;28;20072;-76
2023/06/01 06:55:42;;;;;;;3.53;2.03;;;;;;;11.19;100.00;102464.28;4991964;28;20057;-76
2023/06/01 06:58:27;;;;;;;6.35;2.30;;;;;;;11.22;100.00;102464.22;4978405;28;20064;-75
2023/06/01 07:01:11;;;;;;;4.32;2.10;;;;;;;11.23;100.00;102462.44;4995482;28;20084;-75
2023/06/01 07:03:55;;;;;;;3.78;2.08;;;;;;;11.26;100.00;102467.66;4994033;28;20080;-75
2023/06/01 07:06:39;;;;;;;5.10;2.40;;;;;;;11.28;100.00;102469.38;4997945;28;20057;-76
2023/06/01 07:09:23;;;;;;;6.45;1.95;;;;;;;11.35;100.00;102474.56;4994348;28;20800;-78
2023/06/01 07:12:08;;;;;;;7.43;1.90;;;;;;;11.41;100.00;102469.09;4981670;28;20112;-79
2023/06/01 07:15:01;;;;;;;4.13;1.92;;;;;;;11.44;100.00;102466.38;5000686;28;20040;-80
2023/06/01 07:17:45;;;;;;;4.35;1.90;;;;;;;11.47;100.00;102474.28;4986436;28;20129;-79
2023/06/01 07:20:29;;;;;;;4.43;2.00;;;;;;;11.49;100.00;102467.16;4999646;28;20080;-80
2023/06/01 07:23:16;;;;;;;2.95;2.13;;;;;;;11.49;100.00;102460.97;4982336;28;20131;-79
2023/06/01 07:26:00;;;;;;;4.50;1.70;;;;;;;11.48;100.00;102464.53;4983450;28;20072;-82
2023/06/01 07:28:44;;;;;;;3.60;1.58;;;;;;;11.49;100.00;102467.16;4983677;28;20057;-83
2023/06/01 07:31:29;;;;;;;3.00;1.98;;;;;;;11.46;100.00;102461.03;5001344;28;20084;-80
2023/06/01 07:34:13;;;;;;;5.03;1.90;;;;;;;11.46;100.00;102469.88;4987651;28;20127;-82
2023/06/01 07:36:58;;;;;;;3.55;1.77;;;;;;;11.48;100.00;102465.41;5002657;28;20317;-82
2023/06/01 07:39:43;;;;;;;3.05;1.70;;;;;;;11.52;100.00;102458.25;4985890;28;20111;-81
2023/06/01 07:42:26;;;;;;;2.72;2.03;;;;;;;11.52;100.00;102459.13;4999585;28;20527;-81
2023/06/01 07:45:11;;;;;;;5.35;1.60;;;;;;;11.58;100.00;102455.44;4999947;28;20092;-81
2023/06/01 07:47:55;;;;;;;4.80;1.75;;;;;;;11.63;100.00;102455.34;4998373;28;20416;-82
2023/06/01 07:50:39;;;;;;;3.90;1.77;;;;;;;11.59;100.00;102461.63;4967344;28;20073;-78
2023/06/01 07:53:23;;;;;;;3.88;1.85;;;;;;;11.55;100.00;102448.44;4996065;28;20101;-77
2023/06/01 07:56:08;;;;;;;3.65;2.25;;;;;;;11.53;100.00;102457.34;4983149;28;20096;-78
2023/06/01 07:58:55;;;;;;;3.30;1.60;;;;;;;11.45;100.00;102465.50;5000098;28;20060;-77
2023/06/01 08:01:39;;;;;;;2.03;1.65;;;;;;;11.37;100.00;102467.41;4998409;28;20111;-77
2023/06/01 08:04:24;;;;;;;4.32;1.92;;;;;;;11.28;100.00;102465.88;4986400;28;20629;-82
2023/06/01 08:07:09;;;;;;;3.33;1.48;;;;;;;11.20;100.00;102463.38;4999866;28;20120;-81
2023/06/01 08:09:53;;;;;;;3.05;1.70;;;;;;;11.18;100.00;102464.31;4983284;28;20060;-77
2023/06/01 08:12:42;;;;;;;2.75;1.90;;;;;;;11.18;100.00;102459.91;4996347;28;20136;-76
2023/06/01 08:15:28;;;;;;;3.55;1.45;;;;;;;11.22;100.00;102461.56;4983790;28;20610;-77
2023/06/01 08:18:12;;;;;;;4.05;1.30;;;;;;;11.20;100.00;102460.72;4982202;28;20100;-78
2023/06/01 08:20:56;;;;;;;3.38;1.65;;;;;;;11.24;100.00;102462.38;4997542;28;20045;-76
2023/06/01 08:23:41;;;;;;;3.40;1.85;;;;;;;11.26;100.00;102463.25;4998630;28;21773;-76
2023/06/01 08:26:25;;;;;;;6.97;1.88;;;;;;;11.28;100.00;102461.44;4959613;28;20239;-77
2023/06/01 08:29:14;;;;;;;4.05;2.10;;;;;;;11.33;100.00;102460.47;4998147;28;20674;-78
2023/06/01 08:31:59;;;;;;;4.30;2.00;;;;;;;11.37;100.00;102454.16;4997602;28;20041;-76
2023/06/01 08:34:44;;;;;;;5.82;1.90;;;;;;;11.39;100.00;102455.88;4981289;28;20212;-77
2023/06/01 08:37:29;;;;;;;8.45;2.33;;;;;;;11.41;100.00;102463.81;4995293;28;20096;-77
2023/06/01 08:40:14;;;;;;;5.30;1.92;;;;;;;11.44;100.00;102457.56;4992206;28;20072;-78
2023/06/01 08:43:09;;;;;;;3.33;2.20;;;;;;;11.46;100.00;102446.00;4996442;28;20079;-78
2023/06/01 08:46:00;;;;;;;5.32;2.42;;;;;;;11.50;100.00;102449.47;4992008;28;20119;-77
2023/06/01 08:48:45;;;;;;;3.78;2.05;;;;;;;11.53;100.00;102457.34;4984886;28;20454;-79
2023/06/01 08:51:37;;;;;;;5.25;2.35;;;;;;;11.57;100.00;102450.16;4981933;28;20117;-76
2023/06/01 08:54:22;;;;;;;5.13;2.20;;;;;;;11.59;100.00;102461.63;4973543;28;20169;-77
2023/06/01 08:57:07;;;;;;;7.90;2.83;;;;;;;11.61;100.00;102457.16;4989771;28;20788;-78
2023/06/01 08:59:51;;;;;;;6.93;2.38;;;;;;;11.62;100.00;102450.94;4970484;28;20057;-77
2023/06/01 09:02:35;;;;;;;3.35;1.90;;;;;;;11.63;100.00;102440.31;4987297;28;20057;-77
2023/06/01 09:05:19;;;;;;;3.72;2.30;;;;;;;11.69;100.00;102452.53;4984946;28;20128;-76
2023/06/01 09:08:10;;;;;;;3.55;2.28;;;;;;;11.71;100.00;102445.41;4987225;28;20219;-76
2023/06/01 09:10:55;;;;;;;6.03;2.63;;;;;;;11.74;100.00;102444.47;4990213;28;20157;-76
2023/06/01 09:13:42;;;;;;;6.50;2.08;;;;;;;11.75;100.00;102441.78;4992890;28;20052;-79
2023/06/01 09:16:36;;;;;;;6.68;2.30;;;;;;;11.78;100.00;102435.53;4984251;28;20049;-77
2023/06/01 09:19:20;;;;;;;6.10;2.50;;;;;;;11.78;100.00;102436.38;4974048;28;20145;-75
2023/06/01 09:22:07;;;;;;;2.97;1.92;;;;;;;11.84;100.00;102434.47;4986637;28;20129;-77
2023/06/01 09:24:56;;;;;;;5.20;2.28;;;;;;;11.92;100.00;102438.69;4959441;28;20049;-77
2023/06/01 09:27:58;;;;;;;6.50;2.13;;;;;;;11.98;100.00;102440.31;4978304;28;20460;-90
2023/06/01 09:30:52;;;;;;;8.07;2.55;;;;;;;11.99;100.00;102434.06;4992031;28;20049;-83
2023/06/01 09:33:36;;;;;;;5.45;2.45;;;;;;;11.99;100.00;102426.13;4992987;28;20200;-75
2023/06/01 09:36:25;;;;;;;7.38;2.50;;;;;;;12.04;100.00;102432.22;4987665;28;20112;-76
2023/06/01 09:39:11;;;;;;;6.55;1.80;;;;;;;12.06;100.00;102427.75;4989434;28;20124;-76
2023/06/01 09:41:59;;;;;;;4.22;2.05;;;;;;;12.05;100.00;102417.19;4986746;28;20065;-77
2023/06/01 09:44:44;;;;;;;3.92;1.88;;;;;;;12.06;100.00;102422.44;4987912;28;20036;-78
2023/06/01 09:47:30;;;;;;;4.03;2.58;;;;;;;12.09;100.00;102418.81;4991087;28;20393;-76
2023/06/01 09:50:35;;;;;;;6.70;2.13;;;;;;;12.10;100.00;102428.56;4987321;28;20072;-76
2023/06/01 09:53:19;;;;;;;5.60;2.50;;;;;;;12.13;100.00;102423.16;4971478;28;21219;-77
2023/06/01 09:56:06;;;;;;;6.55;2.53;;;;;;;12.23;100.00;102423.78;4965326;28;20048;-76
2023/06/01 09:58:58;;;;;;;5.10;2.35;;;;;;;12.29;100.00;102414.75;4987352;28;20077;-75
2023/06/01 10:01:44;;;;;;;5.38;2.53;;;;;;;12.31;100.00;102424.41;4988321;28;20104;-76
2023/06/01 10:04:28;;;;;;;9.57;2.30;;;;;;;12.35;100.00;102418.13;4972678;28;20052;-76
2023/06/01 10:07:14;;;;;;;6.10;2.28;;;;;;;12.38;100.00;102419.81;4989917;28;20119;-77
2023/06/01 10:09:59;;;;;;;6.47;2.60;;;;;;;12.34;100.00;102426.13;4992189;28;20109;-76
2023/06/01 10:12:44;;;;;;;3.80;2.60;;;;;;;12.33;100.00;102422.59;4970404;28;20096;-77
2023/06/01 10:15:29;;;;;;;4.40;2.05;;;;;;;12.34;100.00;102412.84;4957924;28;21919;-77
2023/06/01 10:18:15;;;;;;;4.70;2.13;;;;;;;12.34;100.00;102420.81;4986045;28;20108;-76
2023/06/01 10:21:01;;;;;;;5.40;2.60;;;;;;;12.35;100.00;102423.44;4986664;28;20552;-77
2023/06/01 10:23:47;;;;;;;6.00;2.28;;;;;;;12.40;100.00;102414.44;4984969;28;20630;-76
2023/06/01 10:26:46;;;;;;;7.53;2.28;;;;;;;12.44;100.00;102406.38;4971470;28;22040;-77
2023/06/01 10:29:31;;;;;;;3.60;2.03;;;;;;;12.45;100.00;102404.56;4973295;28;20161;-76
2023/06/01 10:32:38;;;;;;;5.38;2.22;;;;;;;12.49;100.00;102408.91;4975260;28;20165;-76
2023/06/01 10:35:28;;;;;;;4.55;2.33;;;;;;;12.52;100.00;102400.81;4989038;28;20115;-77
2023/06/01 10:38:12;;;;;;;4.57;2.45;;;;;;;12.54;100.00;102404.34;4989422;28;20984;-79
2023/06/01 10:41:30;;;;;;;4.82;2.30;;;;;;;12.56;100.00;102405.16;4991373;28;20611;-76
2023/06/01 10:44:43;;;;;;;6.65;2.25;;;;;;;12.56;100.00;102407.81;4983463;28;21333;-78
2023/06/01 10:47:46;;;;;;;4.25;2.03;;;;;;;12.57;100.00;102406.88;4983013;28;21585;-75
2023/06/01 10:50:31;;;;;;;6.30;2.40;;;;;;;12.60;100.00;102404.13;4988484;28;20129;-75
2023/06/01 10:53:24;;;;;;;5.93;2.40;;;;;;;12.63;100.00;102401.38;4984320;28;20508;-74
2023/06/01 10:56:22;;;;;;;5.22;2.40;;;;;;;12.66;100.00;102397.78;4983136;28;20053;-75
2023/06/01 10:59:06;;;;;;;4.25;2.20;;;;;;;12.63;100.00;102398.72;4988338;28;20052;-76
2023/06/01 11:01:51;;;;;;;4.43;2.55;;;;;;;12.68;100.00;102395.94;4985905;28;20049;-76
2023/06/01 11:04:36;;;;;;;5.57;2.22;;;;;;;12.68;100.00;102392.44;4975444;28;20153;-75
2023/06/01 11:07:38;;;;;;;4.25;2.22;;;;;;;12.78;100.00;102396.53;4971295;28;20924;-76
2023/06/01 11:10:50;;;;;;;8.32;2.42;;;;;;;12.83;100.00;102391.97;4989169;28;20049;-76
2023/06/01 11:13:37;;;;;;;4.63;2.38;;;;;;;12.86;100.00;102393.66;4986505;28;20060;-76
2023/06/01 11:28:07;;;;;;;5.63;2.20;;;;;;;13.01;100.00;102393.19;4991616;28;20385;-76
2023/06/01 11:30:52;;;;;;;5.10;2.47;;;;;;;13.11;100.00;102401.75;4986398;28;20072;-74
2023/06/01 11:33:53;;;;;;;3.90;1.67;;;;;;;13.10;100.00;102397.34;4974555;28;20739;-75
2023/06/01 11:36:40;;;;;;;4.18;1.75;;;;;;;13.04;100.00;102397.53;4976129;28;20116;-75
2023/06/01 11:39:28;;;;;;;5.13;2.17;;;;;;;12.99;100.00;102388.81;4954487;28;20049;-75
2023/06/01 11:42:13;;;;;;;6.43;2.08;;;;;;;12.98;100.00;102392.41;4982844;28;20084;-75
2023/06/01 11:44:58;;;;;;;4.47;1.92;;;;;;;12.98;100.00;102387.09;4965696;28;20557;-76
2023/06/01 11:47:45;;;;;;;6.53;1.85;;;;;;;12.96;100.00;102394.25;4962246;28;20056;-77
2023/06/01 11:50:31;;;;;;;3.80;1.98;;;;;;;12.95;100.00;102403.13;4979742;28;20400;-76
2023/06/01 11:53:16;;;;;;;5.97;2.00;;;;;;;12.92;100.00;102398.78;4981700;28;20116;-76
2023/06/01 11:56:02;;;;;;;4.22;1.70;;;;;;;12.88;100.00;102395.34;4981472;28;20085;-76
2023/06/01 11:58:46;;;;;;;4.43;2.10;;;;;;;12.92;100.00;102413.84;4968767;28;20044;-77
2023/06/01 12:01:31;;;;;;;2.78;1.60;;;;;;;12.90;100.00;102396.16;4984139;28;20073;-76
2023/06/01 12:04:16;;;;;;;2.60;1.70;;;;;;;12.91;100.00;102397.03;4967396;28;20072;-77
2023/06/01 12:07:05;;;;;;;7.55;1.95;;;;;;;12.92;100.00;102393.47;4989511;28;20068;-76
2023/06/01 12:09:51;;;;;;;4.63;1.90;;;;;;;13.00;100.00;102382.59;4969010;28;20096;-75
2023/06/01 12:12:37;;;;;;;3.63;1.80;;;;;;;13.04;100.00;102387.75;4986325;28;20104;-76
2023/06/01 12:15:24;;;;;;;2.35;1.67;;;;;;;13.02;100.00;102383.44;4984929;28;20075;-77
2023/06/01 12:18:08;;;;;;;4.60;1.80;;;;;;;13.01;100.00;102382.53;4969757;28;20116;-77
2023/06/01 12:20:58;;;;;;;2.63;1.80;;;;;;;13.01;100.00;102389.63;4981727;28;20791;-78
2023/06/01 12:23:45;;;;;;;5.22;1.95;;;;;;;13.02;100.00;102386.09;4986552;28;20096;-77
2023/06/01 12:26:36;;;;;;;4.70;2.67;;;;;;;12.98;100.00;102390.63;4977469;28;20056;-77
2023/06/01 12:29:41;;;;;;;6.68;2.38;;;;;;;13.02;100.00;102388.75;4981898;28;20068;-79
2023/06/01 12:32:40;;;;;;;3.75;1.83;;;;;;;13.00;100.00;102394.09;4969618;28;20619;-77
2023/06/01 12:35:25;;;;;;;5.15;1.80;;;;;;;12.98;100.00;102387.09;4969598;28;20522;-77
2023/06/01 12:38:10;;;;;;;4.50;1.77;;;;;;;13.01;100.00;102389.63;4985944;28;20589;-77
2023/06/01 12:41:11;;;;;;;4.20;1.58;;;;;;;13.11;100.00;102388.44;4964698;28;20040;-76
2023/06/01 12:43:57;;;;;;;2.50;1.40;;;;;;;13.17;100.00;102393.56;4988647;28;20145;-76
2023/06/01 12:46:41;;;;;;;2.05;1.45;;;;;;;13.21;100.00;102393.47;4982115;28;20169;-78
2023/06/01 12:49:26;;;;;;;2.10;1.40;;;;;;;13.24;100.00;102396.03;4986256;28;20053;-78
2023/06/01 12:52:12;;;;;;;6.22;1.70;;;;;;;13.22;100.00;102395.19;4976577;28;20044;-79
2023/06/01 12:54:57;;;;;;;4.53;1.70;;;;;;;13.17;100.00;102398.00;4989533;28;20108;-78
2023/06/01 12:57:43;;;;;;;2.55;1.60;;;;;;;13.15;100.00;102395.41;4990331;28;20440;-77
2023/06/01 13:00:27;;;;;;;3.03;1.80;;;;;;;13.13;100.00;102386.59;4987357;28;20630;-78